X  Tanca Dades meteorològiques de l'aviació METAR        EDDG Twente
Temperatura
15°C Temperatura
7°C Rosada
59% Humitat



Vent
41 KM/H
25 MPH
11 M/S
22 NUS



230°
SO
Condicions actuals

Mostly Cloudy Força ennuvolat
Pressió 1003 (hPa) - 29.62 (inHg)
Visibilitat 6 (milla) - 10 (km)
Aeroport
Codi aeroport EDDG

Ubicació: Twente
Distància: 7 (km)

Metar:
METAR EDDG 150920Z AUTO 23022G34KT 9999 BKN035 BKN044 15/07 Q1003 NOSIG

Temps: 15-06-2024 11:20 CEST